sensor_id;sensor_type;location;lat;lon;timestamp;pressure;altitude;pressure_sealevel;temperature;humidity
29825;BME280;16713;52.916;12.834;2023-02-23T00:01:33;100791.63;;;4.78;73.90
29825;BME280;16713;52.916;12.834;2023-02-23T00:03:59;100798.00;;;4.74;73.76
29825;BME280;16713;52.916;12.834;2023-02-23T00:06:26;100793.03;;;4.67;74.86
29825;BME280;16713;52.916;12.834;2023-02-23T00:08:53;100797.00;;;4.70;74.67
29825;BME280;16713;52.916;12.834;2023-02-23T00:11:20;100801.03;;;4.72;74.57
29825;BME280;16713;52.916;12.834;2023-02-23T00:13:47;100790.78;;;4.69;74.31
29825;BME280;16713;52.916;12.834;2023-02-23T00:16:16;100803.88;;;4.67;74.54
29825;BME280;16713;52.916;12.834;2023-02-23T00:18:46;100783.88;;;4.63;74.46
29825;BME280;16713;52.916;12.834;2023-02-23T00:21:16;100790.25;;;4.59;74.17
29825;BME280;16713;52.916;12.834;2023-02-23T00:24:03;100784.56;;;4.69;75.11
29825;BME280;16713;52.916;12.834;2023-02-23T00:26:30;100780.38;;;4.63;74.51
29825;BME280;16713;52.916;12.834;2023-02-23T00:29:00;100774.13;;;4.62;75.35
29825;BME280;16713;52.916;12.834;2023-02-23T00:31:27;100777.31;;;4.56;74.83
29825;BME280;16713;52.916;12.834;2023-02-23T00:33:54;100770.97;;;4.69;74.96
29825;BME280;16713;52.916;12.834;2023-02-23T00:36:22;100774.81;;;4.76;75.44
29825;BME280;16713;52.916;12.834;2023-02-23T00:38:51;100768.41;;;4.64;74.30
29825;BME280;16713;52.916;12.834;2023-02-23T00:41:18;100772.25;;;4.71;74.90
29825;BME280;16713;52.916;12.834;2023-02-23T00:43:50;100771.56;;;4.57;75.10
29825;BME280;16713;52.916;12.834;2023-02-23T00:46:20;100768.72;;;4.62;74.67
29825;BME280;16713;52.916;12.834;2023-02-23T00:48:48;100764.63;;;4.43;75.51
29825;BME280;16713;52.916;12.834;2023-02-23T00:51:14;100764.09;;;4.63;75.27
29825;BME280;16713;52.916;12.834;2023-02-23T00:53:42;100773.50;;;4.65;74.92
29825;BME280;16713;52.916;12.834;2023-02-23T00:56:10;100773.47;;;4.57;75.81
29825;BME280;16713;52.916;12.834;2023-02-23T00:58:37;100778.91;;;4.57;75.89
29825;BME280;16713;52.916;12.834;2023-02-23T01:01:07;100776.09;;;4.70;74.47
29825;BME280;16713;52.916;12.834;2023-02-23T01:03:34;100768.03;;;4.57;76.09
29825;BME280;16713;52.916;12.834;2023-02-23T01:06:03;100776.22;;;4.65;75.46
29825;BME280;16713;52.916;12.834;2023-02-23T01:08:31;100772.88;;;4.68;75.83
29825;BME280;16713;52.916;12.834;2023-02-23T01:10:58;100769.66;;;4.58;75.24
29825;BME280;16713;52.916;12.834;2023-02-23T01:13:24;100765.13;;;4.53;74.99
29825;BME280;16713;52.916;12.834;2023-02-23T01:15:53;100766.06;;;4.49;74.89
29825;BME280;16713;52.916;12.834;2023-02-23T01:18:19;100773.88;;;4.72;74.50
29825;BME280;16713;52.916;12.834;2023-02-23T01:20:46;100775.25;;;4.61;75.19
29825;BME280;16713;52.916;12.834;2023-02-23T01:23:12;100777.81;;;4.58;75.20
29825;BME280;16713;52.916;12.834;2023-02-23T01:25:40;100776.72;;;4.67;75.75
29825;BME280;16713;52.916;12.834;2023-02-23T01:28:08;100768.34;;;4.55;75.31
29825;BME280;16713;52.916;12.834;2023-02-23T01:30:35;100759.69;;;4.45;74.86
29825;BME280;16713;52.916;12.834;2023-02-23T01:33:02;100770.09;;;4.51;75.13
29825;BME280;16713;52.916;12.834;2023-02-23T01:35:28;100769.97;;;4.56;75.09
29825;BME280;16713;52.916;12.834;2023-02-23T01:37:54;100765.00;;;4.58;74.37
29825;BME280;16713;52.916;12.834;2023-02-23T01:40:22;100761.78;;;4.48;75.67
29825;BME280;16713;52.916;12.834;2023-02-23T01:43:13;100754.25;;;4.45;75.64
29825;BME280;16713;52.916;12.834;2023-02-23T01:45:43;100758.75;;;4.49;75.60
29825;BME280;16713;52.916;12.834;2023-02-23T01:48:14;100750.97;;;4.56;75.22
29825;BME280;16713;52.916;12.834;2023-02-23T01:50:44;100750.72;;;4.44;74.77
29825;BME280;16713;52.916;12.834;2023-02-23T01:53:11;100743.56;;;4.48;75.61
29825;BME280;16713;52.916;12.834;2023-02-23T01:55:37;100749.91;;;4.44;75.49
29825;BME280;16713;52.916;12.834;2023-02-23T01:58:06;100734.44;;;4.44;75.98
29825;BME280;16713;52.916;12.834;2023-02-23T02:00:36;100729.81;;;4.45;75.65
29825;BME280;16713;52.916;12.834;2023-02-23T02:03:05;100730.53;;;4.37;76.11
29825;BME280;16713;52.916;12.834;2023-02-23T02:05:34;100722.09;;;4.38;74.79
29825;BME280;16713;52.916;12.834;2023-02-23T02:08:01;100721.66;;;4.45;76.04
29825;BME280;16713;52.916;12.834;2023-02-23T02:10:28;100720.44;;;4.29;75.33
29825;BME280;16713;52.916;12.834;2023-02-23T02:13:12;100718.38;;;4.34;75.57
29825;BME280;16713;52.916;12.834;2023-02-23T02:15:42;100713.25;;;4.24;76.05
29825;BME280;16713;52.916;12.834;2023-02-23T02:26:41;100708.22;;;4.09;75.34
29825;BME280;16713;52.916;12.834;2023-02-23T02:34:35;100707.72;;;4.07;75.58
29825;BME280;16713;52.916;12.834;2023-02-23T02:37:20;100693.81;;;4.09;75.88
29825;BME280;16713;52.916;12.834;2023-02-23T02:45:24;100685.03;;;4.03;76.42
29825;BME280;16713;52.916;12.834;2023-02-23T02:53:04;100676.31;;;3.84;75.30
29825;BME280;16713;52.916;12.834;2023-02-23T02:55:32;100679.59;;;4.03;76.08
29825;BME280;16713;52.916;12.834;2023-02-23T02:58:03;100674.19;;;4.03;76.26
29825;BME280;16713;52.916;12.834;2023-02-23T03:03:37;100680.75;;;4.11;75.92
29825;BME280;16713;52.916;12.834;2023-02-23T03:06:29;100673.56;;;4.06;76.51
29825;BME280;16713;52.916;12.834;2023-02-23T03:09:24;100669.63;;;3.90;76.46
29825;BME280;16713;52.916;12.834;2023-02-23T03:15:13;100662.44;;;3.86;76.36
29825;BME280;16713;52.916;12.834;2023-02-23T03:18:15;100666.75;;;3.87;75.80
29825;BME280;16713;52.916;12.834;2023-02-23T03:21:07;100678.16;;;4.06;75.51
29825;BME280;16713;52.916;12.834;2023-02-23T03:24:10;100680.84;;;3.97;75.59
29825;BME280;16713;52.916;12.834;2023-02-23T03:27:00;100674.50;;;3.80;75.70
29825;BME280;16713;52.916;12.834;2023-02-23T03:29:51;100677.28;;;3.88;76.20
29825;BME280;16713;52.916;12.834;2023-02-23T03:32:43;100675.50;;;3.84;77.28
29825;BME280;16713;52.916;12.834;2023-02-23T03:40:59;100677.69;;;4.04;75.22
29825;BME280;16713;52.916;12.834;2023-02-23T03:43:48;100673.81;;;3.96;75.29
29825;BME280;16713;52.916;12.834;2023-02-23T03:46:36;100672.41;;;3.77;75.75
29825;BME280;16713;52.916;12.834;2023-02-23T03:49:22;100669.59;;;3.82;75.62
29825;BME280;16713;52.916;12.834;2023-02-23T03:52:12;100663.50;;;3.76;76.40
29825;BME280;16713;52.916;12.834;2023-02-23T03:54:59;100670.69;;;3.81;76.24
29825;BME280;16713;52.916;12.834;2023-02-23T03:57:46;100666.22;;;3.54;75.50
29825;BME280;16713;52.916;12.834;2023-02-23T04:00:34;100671.94;;;3.52;76.11
29825;BME280;16713;52.916;12.834;2023-02-23T04:03:20;100670.66;;;3.50;75.73
29825;BME280;16713;52.916;12.834;2023-02-23T04:06:06;100670.16;;;3.48;76.57
29825;BME280;16713;52.916;12.834;2023-02-23T04:08:52;100672.63;;;3.58;75.72
29825;BME280;16713;52.916;12.834;2023-02-23T04:11:41;100672.25;;;3.51;75.51
29825;BME280;16713;52.916;12.834;2023-02-23T04:14:36;100666.09;;;3.37;76.44
29825;BME280;16713;52.916;12.834;2023-02-23T04:17:04;100662.38;;;3.33;76.76
29825;BME280;16713;52.916;12.834;2023-02-23T04:19:31;100657.28;;;3.31;77.08
29825;BME280;16713;52.916;12.834;2023-02-23T04:21:57;100662.88;;;3.35;76.58
29825;BME280;16713;52.916;12.834;2023-02-23T04:24:24;100658.03;;;3.45;77.37
29825;BME280;16713;52.916;12.834;2023-02-23T04:26:50;100657.53;;;3.43;76.65
29825;BME280;16713;52.916;12.834;2023-02-23T04:29:16;100651.94;;;3.40;76.26
29825;BME280;16713;52.916;12.834;2023-02-23T04:31:43;100653.03;;;3.39;76.92
29825;BME280;16713;52.916;12.834;2023-02-23T04:34:09;100653.34;;;3.37;76.33
29825;BME280;16713;52.916;12.834;2023-02-23T04:36:36;100643.66;;;3.45;76.82
29825;BME280;16713;52.916;12.834;2023-02-23T04:39:02;100652.19;;;3.52;75.76
29825;BME280;16713;52.916;12.834;2023-02-23T04:41:28;100641.50;;;3.56;75.08
29825;BME280;16713;52.916;12.834;2023-02-23T04:43:55;100647.44;;;3.35;75.39
29825;BME280;16713;52.916;12.834;2023-02-23T04:46:21;100643.97;;;3.43;75.60
29825;BME280;16713;52.916;12.834;2023-02-23T04:48:48;100646.00;;;3.38;76.32
29825;BME280;16713;52.916;12.834;2023-02-23T04:51:14;100644.59;;;3.40;76.23
29825;BME280;16713;52.916;12.834;2023-02-23T04:53:40;100650.75;;;3.55;75.52
29825;BME280;16713;52.916;12.834;2023-02-23T04:56:07;100641.47;;;3.47;75.14
29825;BME280;16713;52.916;12.834;2023-02-23T04:58:33;100646.00;;;3.38;75.25
29825;BME280;16713;52.916;12.834;2023-02-23T05:01:03;100643.25;;;3.52;75.61
29825;BME280;16713;52.916;12.834;2023-02-23T05:03:30;100641.81;;;3.54;75.20
29825;BME280;16713;52.916;12.834;2023-02-23T05:05:56;100647.84;;;3.29;75.20
29825;BME280;16713;52.916;12.834;2023-02-23T05:08:23;100635.47;;;3.36;76.46
29825;BME280;16713;52.916;12.834;2023-02-23T05:10:49;100636.81;;;3.47;75.44
29825;BME280;16713;52.916;12.834;2023-02-23T05:13:15;100650.75;;;3.32;75.80
29825;BME280;16713;52.916;12.834;2023-02-23T05:15:42;100632.44;;;3.16;75.09
29825;BME280;16713;52.916;12.834;2023-02-23T05:18:08;100639.00;;;3.15;76.29
29825;BME280;16713;52.916;12.834;2023-02-23T05:20:35;100638.19;;;3.36;76.55
29825;BME280;16713;52.916;12.834;2023-02-23T05:23:01;100633.78;;;3.49;76.04
29825;BME280;16713;52.916;12.834;2023-02-23T05:25:28;100631.72;;;3.24;75.66
29825;BME280;16713;52.916;12.834;2023-02-23T05:27:54;100633.91;;;3.22;76.33
29825;BME280;16713;52.916;12.834;2023-02-23T05:30:20;100637.22;;;3.32;75.81
29825;BME280;16713;52.916;12.834;2023-02-23T05:32:47;100629.63;;;3.43;75.10
29825;BME280;16713;52.916;12.834;2023-02-23T05:35:13;100630.97;;;3.54;75.94
29825;BME280;16713;52.916;12.834;2023-02-23T05:37:39;100634.84;;;3.17;75.60
29825;BME280;16713;52.916;12.834;2023-02-23T05:40:06;100637.13;;;3.24;75.39
29825;BME280;16713;52.916;12.834;2023-02-23T05:42:32;100640.88;;;3.14;75.93
29825;BME280;16713;52.916;12.834;2023-02-23T05:44:59;100639.00;;;3.15;76.39
29825;BME280;16713;52.916;12.834;2023-02-23T05:47:25;100641.50;;;3.33;75.95
29825;BME280;16713;52.916;12.834;2023-02-23T05:49:51;100643.06;;;3.26;76.16
29825;BME280;16713;52.916;12.834;2023-02-23T05:52:18;100647.66;;;3.25;75.64
29825;BME280;16713;52.916;12.834;2023-02-23T05:54:44;100644.66;;;3.27;75.55
29825;BME280;16713;52.916;12.834;2023-02-23T05:57:11;100643.28;;;3.38;75.50
29825;BME280;16713;52.916;12.834;2023-02-23T05:59:38;100646.84;;;3.25;75.22
29825;BME280;16713;52.916;12.834;2023-02-23T06:02:04;100646.19;;;3.41;75.47
29825;BME280;16713;52.916;12.834;2023-02-23T06:04:31;100646.81;;;3.16;74.70
29825;BME280;16713;52.916;12.834;2023-02-23T06:06:58;100649.13;;;3.31;75.26
29825;BME280;16713;52.916;12.834;2023-02-23T06:09:24;100656.22;;;3.19;75.61
29825;BME280;16713;52.916;12.834;2023-02-23T06:11:50;100657.16;;;3.36;75.62
29825;BME280;16713;52.916;12.834;2023-02-23T06:14:17;100663.69;;;3.35;74.79
29825;BME280;16713;52.916;12.834;2023-02-23T06:16:43;100653.06;;;3.03;74.85
29825;BME280;16713;52.916;12.834;2023-02-23T06:19:10;100660.69;;;3.01;75.98
29825;BME280;16713;52.916;12.834;2023-02-23T06:21:37;100663.50;;;3.32;75.85
29825;BME280;16713;52.916;12.834;2023-02-23T06:24:03;100659.97;;;3.09;75.90
29825;BME280;16713;52.916;12.834;2023-02-23T06:26:30;100664.88;;;3.07;76.53
29825;BME280;16713;52.916;12.834;2023-02-23T06:28:56;100667.13;;;3.05;76.79
29825;BME280;16713;52.916;12.834;2023-02-23T06:31:23;100659.97;;;3.09;76.46
29825;BME280;16713;52.916;12.834;2023-02-23T06:33:49;100662.91;;;2.99;77.38
29825;BME280;16713;52.916;12.834;2023-02-23T06:36:16;100660.25;;;2.86;77.02
29825;BME280;16713;52.916;12.834;2023-02-23T06:38:42;100671.22;;;3.03;77.79
29825;BME280;16713;52.916;12.834;2023-02-23T06:41:10;100662.88;;;3.13;77.33
29825;BME280;16713;52.916;12.834;2023-02-23T06:43:43;100666.56;;;3.17;76.98
29825;BME280;16713;52.916;12.834;2023-02-23T06:46:09;100669.88;;;3.14;76.72
29825;BME280;16713;52.916;12.834;2023-02-23T06:48:36;100663.38;;;3.15;77.95
29825;BME280;16713;52.916;12.834;2023-02-23T06:51:02;100667.38;;;3.39;76.55
29825;BME280;16713;52.916;12.834;2023-02-23T06:53:29;100679.53;;;3.42;77.00
29825;BME280;16713;52.916;12.834;2023-02-23T06:55:56;100671.22;;;3.38;75.82
29825;BME280;16713;52.916;12.834;2023-02-23T06:58:22;100670.03;;;3.53;76.11
29825;BME280;16713;52.916;12.834;2023-02-23T07:00:48;100665.91;;;3.56;76.07
29825;BME280;16713;52.916;12.834;2023-02-23T07:03:15;100670.72;;;3.59;75.46
29825;BME280;16713;52.916;12.834;2023-02-23T07:05:41;100676.75;;;3.56;76.89
29825;BME280;16713;52.916;12.834;2023-02-23T07:08:08;100669.53;;;3.51;76.58
29825;BME280;16713;52.916;12.834;2023-02-23T07:10:35;100674.41;;;3.63;76.60
29825;BME280;16713;52.916;12.834;2023-02-23T07:13:01;100667.53;;;3.57;76.98
29825;BME280;16713;52.916;12.834;2023-02-23T07:15:28;100664.56;;;3.67;76.68
29825;BME280;16713;52.916;12.834;2023-02-23T07:17:54;100671.97;;;3.83;75.97
29825;BME280;16713;52.916;12.834;2023-02-23T07:20:21;100675.44;;;3.75;76.25
29825;BME280;16713;52.916;12.834;2023-02-23T07:22:48;100680.88;;;3.75;75.94
29825;BME280;16713;52.916;12.834;2023-02-23T07:25:14;100684.16;;;3.94;75.94
29825;BME280;16713;52.916;12.834;2023-02-23T07:27:40;100677.78;;;3.90;76.35
29825;BME280;16713;52.916;12.834;2023-02-23T07:30:07;100679.06;;;3.93;76.46
29825;BME280;16713;52.916;12.834;2023-02-23T07:32:34;100687.31;;;4.10;76.59
29825;BME280;16713;52.916;12.834;2023-02-23T07:35:01;100688.31;;;4.22;75.80
29825;BME280;16713;52.916;12.834;2023-02-23T07:37:27;100683.53;;;4.19;76.08
29825;BME280;16713;52.916;12.834;2023-02-23T07:39:54;100677.16;;;4.24;75.49
29825;BME280;16713;52.916;12.834;2023-02-23T07:42:20;100671.13;;;4.35;75.87
29825;BME280;16713;52.916;12.834;2023-02-23T07:44:46;100685.03;;;4.34;75.20
29825;BME280;16713;52.916;12.834;2023-02-23T07:47:12;100682.72;;;4.49;76.08
29825;BME280;16713;52.916;12.834;2023-02-23T07:49:39;100681.91;;;4.49;75.03
29825;BME280;16713;52.916;12.834;2023-02-23T07:52:05;100684.81;;;4.69;74.48
29825;BME280;16713;52.916;12.834;2023-02-23T07:54:32;100691.22;;;4.65;73.90
29825;BME280;16713;52.916;12.834;2023-02-23T07:56:58;100685.47;;;4.66;75.07
29825;BME280;16713;52.916;12.834;2023-02-23T07:59:25;100691.72;;;4.84;74.62
29825;BME280;16713;52.916;12.834;2023-02-23T08:01:51;100688.25;;;4.83;74.74
29825;BME280;16713;52.916;12.834;2023-02-23T08:04:17;100685.06;;;5.07;74.91
29825;BME280;16713;52.916;12.834;2023-02-23T08:06:44;100686.84;;;5.03;73.87
29825;BME280;16713;52.916;12.834;2023-02-23T08:09:10;100688.91;;;5.15;74.90
29825;BME280;16713;52.916;12.834;2023-02-23T08:11:37;100689.88;;;5.19;73.92
29825;BME280;16713;52.916;12.834;2023-02-23T08:14:03;100686.53;;;5.30;74.29
29825;BME280;16713;52.916;12.834;2023-02-23T08:16:30;100687.66;;;5.46;74.17
29825;BME280;16713;52.916;12.834;2023-02-23T08:18:57;100690.69;;;5.45;74.64
29825;BME280;16713;52.916;12.834;2023-02-23T08:21:24;100691.97;;;5.56;74.16
29825;BME280;16713;52.916;12.834;2023-02-23T08:23:51;100683.94;;;5.34;73.04
29825;BME280;16713;52.916;12.834;2023-02-23T08:26:17;100684.28;;;5.49;74.26
29825;BME280;16713;52.916;12.834;2023-02-23T08:28:44;100682.38;;;5.41;73.52
29825;BME280;16713;52.916;12.834;2023-02-23T08:31:12;100677.56;;;5.55;73.77
29825;BME280;16713;52.916;12.834;2023-02-23T08:33:39;100686.38;;;5.61;74.24
29825;BME280;16713;52.916;12.834;2023-02-23T08:36:06;100676.59;;;5.60;74.50
29825;BME280;16713;52.916;12.834;2023-02-23T08:38:32;100672.88;;;5.73;74.17
29825;BME280;16713;52.916;12.834;2023-02-23T08:41:04;100675.63;;;5.73;74.27
29825;BME280;16713;52.916;12.834;2023-02-23T08:43:31;100671.31;;;5.72;74.45
29825;BME280;16713;52.916;12.834;2023-02-23T08:45:57;100676.59;;;5.77;74.03
29825;BME280;16713;52.916;12.834;2023-02-23T08:48:23;100677.78;;;5.96;74.02
29825;BME280;16713;52.916;12.834;2023-02-23T08:50:54;100673.75;;;6.11;73.26
29825;BME280;16713;52.916;12.834;2023-02-23T08:53:21;100672.88;;;5.81;74.64
29825;BME280;16713;52.916;12.834;2023-02-23T08:55:48;100675.53;;;6.15;73.42
29825;BME280;16713;52.916;12.834;2023-02-23T08:58:14;100671.50;;;6.13;73.48
29825;BME280;16713;52.916;12.834;2023-02-23T09:00:40;100673.41;;;6.29;73.11
29825;BME280;16713;52.916;12.834;2023-02-23T09:03:07;100678.78;;;6.38;72.61
29825;BME280;16713;52.916;12.834;2023-02-23T09:05:35;100671.75;;;6.37;72.84
29825;BME280;16713;52.916;12.834;2023-02-23T09:08:02;100676.59;;;6.32;72.94
29825;BME280;16713;52.916;12.834;2023-02-23T09:10:28;100663.00;;;6.14;73.13
29825;BME280;16713;52.916;12.834;2023-02-23T09:12:54;100683.38;;;6.55;73.48
29825;BME280;16713;52.916;12.834;2023-02-23T09:15:21;100680.59;;;6.34;73.25
29825;BME280;16713;52.916;12.834;2023-02-23T09:17:47;100687.66;;;6.64;71.53
29825;BME280;16713;52.916;12.834;2023-02-23T09:20:14;100681.16;;;6.48;72.95
29825;BME280;16713;52.916;12.834;2023-02-23T09:22:41;100700.91;;;6.74;73.41
29825;BME280;16713;52.916;12.834;2023-02-23T09:25:15;100693.66;;;6.78;72.92
29825;BME280;16713;52.916;12.834;2023-02-23T09:27:46;100698.06;;;6.62;72.50
29825;BME280;16713;52.916;12.834;2023-02-23T09:30:13;100697.19;;;6.79;71.86
29825;BME280;16713;52.916;12.834;2023-02-23T09:32:43;100690.34;;;6.73;72.85
29825;BME280;16713;52.916;12.834;2023-02-23T09:35:10;100697.06;;;6.75;72.43
29825;BME280;16713;52.916;12.834;2023-02-23T09:37:36;100694.25;;;6.63;72.88
29825;BME280;16713;52.916;12.834;2023-02-23T09:40:03;100691.16;;;6.73;73.08
29825;BME280;16713;52.916;12.834;2023-02-23T09:42:40;100696.50;;;6.90;73.32
29825;BME280;16713;52.916;12.834;2023-02-23T09:45:15;100697.88;;;6.96;72.11
29825;BME280;16713;52.916;12.834;2023-02-23T09:50:23;100694.50;;;6.70;73.37
29825;BME280;16713;52.916;12.834;2023-02-23T09:52:52;100694.22;;;6.72;73.72
29825;BME280;16713;52.916;12.834;2023-02-23T09:55:20;100689.91;;;6.62;72.86
29825;BME280;16713;52.916;12.834;2023-02-23T09:57:48;100701.47;;;6.88;73.66
29825;BME280;16713;52.916;12.834;2023-02-23T10:00:19;100703.16;;;7.01;73.52
29825;BME280;16713;52.916;12.834;2023-02-23T10:05:35;100702.22;;;6.97;73.05
29825;BME280;16713;52.916;12.834;2023-02-23T10:08:07;100710.00;;;7.07;72.97
29825;BME280;16713;52.916;12.834;2023-02-23T10:10:43;100703.97;;;7.22;72.34
29825;BME280;16713;52.916;12.834;2023-02-23T10:13:14;100713.75;;;7.23;73.33
29825;BME280;16713;52.916;12.834;2023-02-23T10:15:49;100714.06;;;7.42;73.45
29825;BME280;16713;52.916;12.834;2023-02-23T10:20:56;100719.47;;;7.30;72.52
29825;BME280;16713;52.916;12.834;2023-02-23T10:23:29;100715.94;;;7.30;73.80
29825;BME280;16713;52.916;12.834;2023-02-23T10:25:57;100707.19;;;7.24;73.18
29825;BME280;16713;52.916;12.834;2023-02-23T10:28:25;100717.13;;;7.20;74.19
29825;BME280;16713;52.916;12.834;2023-02-23T10:30:53;100702.44;;;7.13;74.07
29825;BME280;16713;52.916;12.834;2023-02-23T10:33:32;100712.28;;;7.05;75.29
29825;BME280;16713;52.916;12.834;2023-02-23T10:36:04;100711.34;;;7.42;74.20
29825;BME280;16713;52.916;12.834;2023-02-23T10:38:39;100706.22;;;7.41;73.79
29825;BME280;16713;52.916;12.834;2023-02-23T10:41:05;100709.28;;;7.39;75.33
29825;BME280;16713;52.916;12.834;2023-02-23T10:43:32;100702.53;;;7.45;74.29
29825;BME280;16713;52.916;12.834;2023-02-23T10:45:58;100702.38;;;7.62;73.75
29825;BME280;16713;52.916;12.834;2023-02-23T10:48:29;100706.63;;;7.51;74.12
29825;BME280;16713;52.916;12.834;2023-02-23T10:50:57;100702.44;;;7.54;74.72
29825;BME280;16713;52.916;12.834;2023-02-23T10:53:32;100698.19;;;7.44;74.36
29825;BME280;16713;52.916;12.834;2023-02-23T10:56:04;100697.94;;;7.70;75.31
29825;BME280;16713;52.916;12.834;2023-02-23T10:58:38;100703.03;;;7.59;75.04
29825;BME280;16713;52.916;12.834;2023-02-23T11:01:05;100694.00;;;7.47;74.83
29825;BME280;16713;52.916;12.834;2023-02-23T11:03:33;100692.81;;;7.68;74.88
29825;BME280;16713;52.916;12.834;2023-02-23T11:06:00;100693.00;;;7.51;75.39
29825;BME280;16713;52.916;12.834;2023-02-23T11:08:31;100694.38;;;7.57;73.81
29825;BME280;16713;52.916;12.834;2023-02-23T11:13:28;100675.25;;;7.45;75.46
29825;BME280;16713;52.916;12.834;2023-02-23T11:15:58;100681.34;;;7.42;76.29
29825;BME280;16713;52.916;12.834;2023-02-23T11:18:25;100681.00;;;7.64;75.51
29825;BME280;16713;52.916;12.834;2023-02-23T11:20:52;100686.94;;;7.46;74.90
29825;BME280;16713;52.916;12.834;2023-02-23T11:23:26;100686.19;;;7.57;74.99
29825;BME280;16713;52.916;12.834;2023-02-23T11:25:57;100685.19;;;7.62;75.23
29825;BME280;16713;52.916;12.834;2023-02-23T11:30:56;100679.03;;;7.32;75.45
29825;BME280;16713;52.916;12.834;2023-02-23T11:33:25;100671.75;;;7.36;76.02
29825;BME280;16713;52.916;12.834;2023-02-23T11:35:57;100671.19;;;7.31;76.01
29825;BME280;16713;52.916;12.834;2023-02-23T11:38:26;100664.72;;;7.35;75.75
29825;BME280;16713;52.916;12.834;2023-02-23T11:41:05;100661.91;;;7.23;75.82
29825;BME280;16713;52.916;12.834;2023-02-23T11:43:56;100663.88;;;7.55;75.76
29825;BME280;16713;52.916;12.834;2023-02-23T11:46:23;100659.94;;;7.32;76.92
29825;BME280;16713;52.916;12.834;2023-02-23T11:48:52;100651.53;;;7.17;77.22
29825;BME280;16713;52.916;12.834;2023-02-23T11:51:25;100657.78;;;7.38;76.68
29825;BME280;16713;52.916;12.834;2023-02-23T11:53:53;100657.25;;;7.44;76.57
29825;BME280;16713;52.916;12.834;2023-02-23T11:56:20;100665.72;;;7.63;75.88
29825;BME280;16713;52.916;12.834;2023-02-23T11:58:49;100661.78;;;7.40;77.17
29825;BME280;16713;52.916;12.834;2023-02-23T12:01:17;100665.28;;;7.61;75.95
29825;BME280;16713;52.916;12.834;2023-02-23T12:03:49;100653.59;;;7.40;76.38
29825;BME280;16713;52.916;12.834;2023-02-23T12:06:27;100645.03;;;7.30;76.20
29825;BME280;16713;52.916;12.834;2023-02-23T12:09:19;100640.75;;;7.41;77.47
29825;BME280;16713;52.916;12.834;2023-02-23T12:11:45;100644.97;;;7.50;77.62
29825;BME280;16713;52.916;12.834;2023-02-23T12:14:23;100640.25;;;7.59;76.89
29825;BME280;16713;52.916;12.834;2023-02-23T12:16:54;100635.00;;;7.54;76.48
29825;BME280;16713;52.916;12.834;2023-02-23T12:29:29;100637.00;;;7.66;76.48
29825;BME280;16713;52.916;12.834;2023-02-23T12:32:01;100637.34;;;7.76;77.45
29825;BME280;16713;52.916;12.834;2023-02-23T12:34:33;100638.88;;;7.86;76.38
29825;BME280;16713;52.916;12.834;2023-02-23T12:39:40;100633.00;;;7.96;76.04
29825;BME280;16713;52.916;12.834;2023-02-23T12:44:54;100627.66;;;8.12;76.19
29825;BME280;16713;52.916;12.834;2023-02-23T12:47:31;100628.59;;;8.16;76.96
29825;BME280;16713;52.916;12.834;2023-02-23T12:50:00;100621.19;;;8.16;75.55
29825;BME280;16713;52.916;12.834;2023-02-23T12:52:39;100628.72;;;8.19;75.73
29825;BME280;16713;52.916;12.834;2023-02-23T12:55:09;100630.16;;;8.17;76.18
29825;BME280;16713;52.916;12.834;2023-02-23T12:57:43;100622.09;;;8.20;76.95
29825;BME280;16713;52.916;12.834;2023-02-23T13:02:52;100623.56;;;8.30;76.97
29825;BME280;16713;52.916;12.834;2023-02-23T13:05:32;100615.16;;;8.11;76.18
29825;BME280;16713;52.916;12.834;2023-02-23T13:08:13;100606.72;;;8.16;75.94
29825;BME280;16713;52.916;12.834;2023-02-23T13:11:01;100605.72;;;8.32;77.00
29825;BME280;16713;52.916;12.834;2023-02-23T13:21:40;100606.16;;;8.22;76.41
29825;BME280;16713;52.916;12.834;2023-02-23T13:26:27;100610.94;;;8.25;76.15
29825;BME280;16713;52.916;12.834;2023-02-23T13:28:58;100610.72;;;8.18;77.62
29825;BME280;16713;52.916;12.834;2023-02-23T13:31:28;100609.91;;;7.94;77.71
29825;BME280;16713;52.916;12.834;2023-02-23T13:33:56;100613.66;;;8.01;77.58
29825;BME280;16713;52.916;12.834;2023-02-23T13:36:23;100611.81;;;8.05;77.01
29825;BME280;16713;52.916;12.834;2023-02-23T13:44:07;100615.38;;;8.06;78.85
29825;BME280;16713;52.916;12.834;2023-02-23T13:46:47;100610.03;;;8.09;77.75
29825;BME280;16713;52.916;12.834;2023-02-23T13:51:47;100603.75;;;8.09;77.23
29825;BME280;16713;52.916;12.834;2023-02-23T13:56:46;100607.84;;;8.15;76.71
29825;BME280;16713;52.916;12.834;2023-02-23T13:59:20;100610.13;;;8.25;78.21
29825;BME280;16713;52.916;12.834;2023-02-23T14:01:49;100612.41;;;8.11;78.83
29825;BME280;16713;52.916;12.834;2023-02-23T14:04:25;100604.56;;;8.09;77.42
29825;BME280;16713;52.916;12.834;2023-02-23T14:06:53;100606.84;;;8.07;78.73
29825;BME280;16713;52.916;12.834;2023-02-23T14:09:32;100606.16;;;8.10;78.69
29825;BME280;16713;52.916;12.834;2023-02-23T14:17:08;100591.72;;;8.10;79.36
29825;BME280;16713;52.916;12.834;2023-02-23T14:19:36;100593.75;;;8.01;78.10
29825;BME280;16713;52.916;12.834;2023-02-23T14:22:04;100588.28;;;7.89;79.78
29825;BME280;16713;52.916;12.834;2023-02-23T14:24:31;100598.66;;;8.19;77.67
29825;BME280;16713;52.916;12.834;2023-02-23T14:29:40;100591.69;;;8.22;78.33
29825;BME280;16713;52.916;12.834;2023-02-23T14:34:42;100591.25;;;8.08;80.14
29825;BME280;16713;52.916;12.834;2023-02-23T14:37:19;100592.72;;;8.05;79.15
29825;BME280;16713;52.916;12.834;2023-02-23T14:39:50;100599.91;;;8.22;78.20
29825;BME280;16713;52.916;12.834;2023-02-23T14:42:22;100591.81;;;8.13;78.95
29825;BME280;16713;52.916;12.834;2023-02-23T14:44:49;100588.50;;;8.20;79.96